KBBG 221944Z 2220/2318 18010G15KT P6SM FEW250
FM230100 19008KT P6SM SKC
FM230600 17006KT P6SM FEW250 WS020/22040KT
FM231400 20012G22KT P6SM SCT250
From batch tds/tafs/production/2024/4/22/h20_m00_tafs.cache.xml.gz
Issued (30 days ago)
Forecasts
2220/2301 18010G15KT 6+SM FEW25000

---
fcst_time_to: '2024-04-23T01:00:00Z'
wind_gust_kt: '15'
sky_condition:
- sky_cover: FEW
  cloud_base_ft_agl: '25000'
wind_speed_kt: '10'
fcst_time_from: '2024-04-22T20:00:00Z'
wind_dir_degrees: '180'
visibility_statute_mi: 6+

FM230100 19008KT 6+SM SKC

---
fcst_time_to: '2024-04-23T06:00:00Z'
sky_condition:
- sky_cover: SKC
wind_speed_kt: '8'
fcst_time_from: '2024-04-23T01:00:00Z'
change_indicator: FM
wind_dir_degrees: '190'
visibility_statute_mi: 6+

FM230600 17006KT 6+SM FEW25000

---
fcst_time_to: '2024-04-23T14:00:00Z'
sky_condition:
- sky_cover: FEW
  cloud_base_ft_agl: '25000'
wind_speed_kt: '6'
fcst_time_from: '2024-04-23T06:00:00Z'
change_indicator: FM
wind_dir_degrees: '170'
wind_shear_speed_kt: '40'
visibility_statute_mi: 6+
wind_shear_hgt_ft_agl: '2000'
wind_shear_dir_degrees: '220'

FM231400 20012G22KT 6+SM SCT25000

---
fcst_time_to: '2024-04-23T18:00:00Z'
wind_gust_kt: '22'
sky_condition:
- sky_cover: SCT
  cloud_base_ft_agl: '25000'
wind_speed_kt: '12'
fcst_time_from: '2024-04-23T14:00:00Z'
change_indicator: FM
wind_dir_degrees: '200'
visibility_statute_mi: 6+

talk